createdAt,value
2023-03-27T00:01:30.793Z,52.53
2023-03-27T00:03:59.853Z,52.58
2023-03-27T00:06:28.306Z,51.82
2023-03-27T00:08:56.662Z,51.32
2023-03-27T00:11:25.287Z,50.89
2023-03-27T00:13:55.003Z,50.66
2023-03-27T00:16:26.834Z,50.15
2023-03-27T00:18:56.133Z,49.72
2023-03-27T00:21:26.168Z,49.78
2023-03-27T00:23:54.687Z,49.65
2023-03-27T00:26:23.388Z,50.88
2023-03-27T00:28:52.917Z,51.46
2023-03-27T00:31:21.656Z,51.50
2023-03-27T00:33:50.236Z,51.95
2023-03-27T00:36:18.800Z,52.67
2023-03-27T00:38:47.010Z,52.98
2023-03-27T00:41:15.204Z,52.81
2023-03-27T00:43:44.265Z,52.58
2023-03-27T00:46:15.866Z,52.57
2023-03-27T00:48:50.163Z,52.74
2023-03-27T00:51:19.989Z,52.43
2023-03-27T00:53:49.577Z,52.53
2023-03-27T00:56:18.191Z,52.15
2023-03-27T00:58:51.345Z,52.16
2023-03-27T01:01:22.587Z,52.45
2023-03-27T01:03:54.051Z,52.29
2023-03-27T01:06:23.446Z,51.98
2023-03-27T01:08:52.187Z,51.61
2023-03-27T01:11:46.641Z,51.31
2023-03-27T01:14:30.072Z,51.48
2023-03-27T01:17:23.343Z,51.53
2023-03-27T01:20:16.877Z,51.23
2023-03-27T01:23:58.409Z,51.21
2023-03-27T01:26:37.060Z,51.40
2023-03-27T01:29:21.570Z,51.25
2023-03-27T01:32:26.148Z,52.25
2023-03-27T01:35:08.407Z,52.47
2023-03-27T01:38:04.694Z,52.17
2023-03-27T01:40:46.318Z,51.66
2023-03-27T01:43:23.570Z,51.06
2023-03-27T01:45:57.497Z,50.36
2023-03-27T01:48:54.110Z,49.69
2023-03-27T01:51:28.275Z,49.26
2023-03-27T01:54:03.985Z,48.75
2023-03-27T01:56:37.539Z,48.50
2023-03-27T01:59:19.182Z,48.29
2023-03-27T02:01:54.327Z,48.14
2023-03-27T02:04:28.917Z,47.91
2023-03-27T02:07:07.855Z,47.97
2023-03-27T02:09:42.777Z,47.82
2023-03-27T02:12:16.628Z,47.69
2023-03-27T02:14:53.164Z,47.48
2023-03-27T02:17:26.801Z,47.29
2023-03-27T02:20:14.849Z,47.78
2023-03-27T02:22:46.087Z,48.06
2023-03-27T02:25:24.368Z,48.66
2023-03-27T02:28:05.626Z,49.19
2023-03-27T02:31:06.756Z,49.73
2023-03-27T02:33:52.199Z,50.15
2023-03-27T02:36:45.779Z,50.74
2023-03-27T02:39:38.225Z,50.82
2023-03-27T02:42:32.716Z,50.42
2023-03-27T02:45:05.948Z,50.36
2023-03-27T02:47:41.152Z,50.84
2023-03-27T02:50:16.561Z,50.58
2023-03-27T02:52:54.164Z,50.63
2023-03-27T02:55:26.451Z,50.63
2023-03-27T02:58:00.553Z,50.61
2023-03-27T03:00:48.809Z,50.34
2023-03-27T03:04:02.307Z,50.57
2023-03-27T03:06:44.717Z,51.10
2023-03-27T03:09:15.059Z,51.37
2023-03-27T03:11:54.435Z,51.66
2023-03-27T03:14:29.479Z,51.92
2023-03-27T03:16:57.820Z,51.62
2023-03-27T03:19:26.324Z,51.45
2023-03-27T03:21:55.854Z,51.55
2023-03-27T03:24:24.020Z,51.40
2023-03-27T03:26:52.501Z,51.68
2023-03-27T03:29:21.025Z,51.96
2023-03-27T03:32:02.264Z,52.31
2023-03-27T03:34:30.849Z,52.35
2023-03-27T03:37:00.555Z,52.14
2023-03-27T03:39:31.377Z,52.24
2023-03-27T03:41:59.854Z,52.11
2023-03-27T03:44:28.680Z,52.61
2023-03-27T03:46:57.433Z,52.96
2023-03-27T03:49:27.194Z,53.44
2023-03-27T03:52:03.644Z,53.94
2023-03-27T03:54:33.142Z,53.84
2023-03-27T03:57:03.262Z,54.08
2023-03-27T03:59:32.332Z,54.08
2023-03-27T04:02:28.978Z,54.43
2023-03-27T04:05:10.734Z,54.64
2023-03-27T04:07:41.335Z,54.48
2023-03-27T04:10:19.268Z,54.39
2023-03-27T04:12:48.630Z,54.30
2023-03-27T04:15:24.823Z,53.80
2023-03-27T04:18:15.337Z,53.68
2023-03-27T04:20:49.741Z,53.70
2023-03-27T04:23:19.078Z,53.05
2023-03-27T04:25:47.577Z,53.03
2023-03-27T04:28:23.834Z,52.91
2023-03-27T04:31:06.658Z,53.13
2023-03-27T04:33:53.354Z,53.35
2023-03-27T04:36:42.583Z,53.47
2023-03-27T04:39:13.181Z,53.43
2023-03-27T04:41:41.642Z,53.56
2023-03-27T04:44:10.200Z,53.23
2023-03-27T04:46:41.596Z,53.22
2023-03-27T04:49:11.870Z,52.91
2023-03-27T04:51:48.842Z,52.52
2023-03-27T04:54:17.327Z,52.58
2023-03-27T04:56:46.733Z,52.57
2023-03-27T04:59:15.817Z,52.35
2023-03-27T05:01:46.974Z,52.79
2023-03-27T05:04:32.157Z,52.98
2023-03-27T05:07:12.468Z,52.84
2023-03-27T05:09:41.071Z,52.59
2023-03-27T05:12:10.802Z,52.76
2023-03-27T05:14:48.724Z,53.28
2023-03-27T05:17:32.733Z,53.27
2023-03-27T05:20:01.125Z,53.19
2023-03-27T05:22:29.384Z,53.23
2023-03-27T05:25:06.460Z,52.81
2023-03-27T05:27:35.240Z,52.74
2023-03-27T05:30:04.820Z,52.48
2023-03-27T05:32:33.035Z,52.25
2023-03-27T05:35:13.493Z,51.94
2023-03-27T05:37:52.778Z,51.70
2023-03-27T05:40:29.197Z,51.53
2023-03-27T05:42:57.924Z,51.54
2023-03-27T05:45:29.583Z,51.29
2023-03-27T05:47:59.783Z,51.06
2023-03-27T05:50:32.473Z,50.93
2023-03-27T05:53:03.140Z,51.07
2023-03-27T05:55:39.059Z,50.69
2023-03-27T05:58:10.197Z,50.57
2023-03-27T06:00:42.312Z,50.50
2023-03-27T06:03:13.170Z,50.05
2023-03-27T06:06:01.188Z,50.32
2023-03-27T06:08:35.030Z,50.53
2023-03-27T06:11:11.713Z,50.79
2023-03-27T06:13:47.088Z,50.29
2023-03-27T06:16:20.953Z,50.46
2023-03-27T06:19:07.636Z,50.28
2023-03-27T06:21:43.372Z,50.19
2023-03-27T06:24:11.866Z,50.05
2023-03-27T06:26:41.468Z,50.55
2023-03-27T06:29:10.672Z,50.57
2023-03-27T06:31:44.945Z,50.51
2023-03-27T06:34:20.635Z,50.15
2023-03-27T06:37:06.206Z,50.37
2023-03-27T06:39:41.461Z,50.28
2023-03-27T06:42:10.127Z,50.24
2023-03-27T06:44:50.282Z,49.87
2023-03-27T06:47:54.801Z,49.17
2023-03-27T06:50:35.424Z,48.87
2023-03-27T06:53:09.961Z,48.70
2023-03-27T06:55:46.259Z,48.88
2023-03-27T06:58:14.576Z,48.94
2023-03-27T07:00:45.847Z,49.07
2023-03-27T07:03:34.440Z,48.98
2023-03-27T07:06:20.501Z,49.19
2023-03-27T07:08:54.464Z,48.99
2023-03-27T07:11:22.699Z,48.86
2023-03-27T07:13:56.021Z,49.07
2023-03-27T07:16:27.641Z,48.95
2023-03-27T07:18:58.843Z,48.94
2023-03-27T07:21:28.580Z,49.50
2023-03-27T07:23:59.237Z,50.25
2023-03-27T07:26:33.938Z,50.27
2023-03-27T07:29:11.654Z,50.68
2023-03-27T07:31:55.572Z,50.74
2023-03-27T07:34:35.455Z,51.21
2023-03-27T07:37:26.048Z,51.75
2023-03-27T07:40:13.547Z,51.60
2023-03-27T07:42:48.442Z,51.10
2023-03-27T07:45:24.246Z,50.80
2023-03-27T07:48:08.717Z,50.78
2023-03-27T07:50:38.410Z,50.25
2023-03-27T07:53:06.804Z,49.73
2023-03-27T07:55:38.116Z,49.39
2023-03-27T07:58:08.492Z,48.95
2023-03-27T08:00:38.929Z,48.43
2023-03-27T08:03:14.255Z,48.74
2023-03-27T08:05:57.920Z,48.17
2023-03-27T08:08:28.513Z,48.00
2023-03-27T08:10:59.764Z,47.96
2023-03-27T08:13:31.639Z,47.57
2023-03-27T08:16:06.065Z,47.37
2023-03-27T08:18:35.118Z,47.03
2023-03-27T08:21:05.867Z,46.63
2023-03-27T08:23:38.156Z,46.35
2023-03-27T08:26:07.011Z,45.50
2023-03-27T08:28:41.857Z,45.38
2023-03-27T08:31:13.924Z,45.44
2023-03-27T08:33:43.187Z,45.01
2023-03-27T08:36:15.713Z,44.59
2023-03-27T08:38:47.030Z,44.47
2023-03-27T08:41:38.904Z,43.72
2023-03-27T08:44:25.739Z,43.39
2023-03-27T08:47:06.995Z,42.81
2023-03-27T08:49:56.368Z,42.26
2023-03-27T08:52:32.046Z,41.99
2023-03-27T08:55:28.838Z,42.48
2023-03-27T08:58:18.848Z,42.59
2023-03-27T09:00:58.731Z,42.23
2023-03-27T09:03:39.123Z,42.35
2023-03-27T09:06:27.057Z,42.68
2023-03-27T09:09:11.689Z,42.76
2023-03-27T09:11:52.141Z,43.21
2023-03-27T09:14:35.662Z,43.62
2023-03-27T09:17:31.806Z,44.11
2023-03-27T09:20:20.870Z,44.41
2023-03-27T09:22:55.299Z,45.01
2023-03-27T09:25:56.795Z,45.12
2023-03-27T09:28:51.743Z,45.26
2023-03-27T09:31:29.323Z,45.40
2023-03-27T09:34:02.529Z,45.45
2023-03-27T09:36:31.524Z,45.36
2023-03-27T09:39:08.140Z,45.59
2023-03-27T09:41:46.745Z,45.67
2023-03-27T09:44:25.664Z,45.56
2023-03-27T09:47:04.873Z,45.09
2023-03-27T09:49:34.912Z,45.19
2023-03-27T09:52:07.993Z,45.41
2023-03-27T09:54:54.315Z,45.55
2023-03-27T09:57:36.074Z,45.94
2023-03-27T10:00:27.514Z,45.81
2023-03-27T10:03:16.744Z,46.23
2023-03-27T10:05:49.945Z,46.12
2023-03-27T10:08:31.429Z,46.20
2023-03-27T10:11:09.127Z,46.67
2023-03-27T10:13:51.260Z,46.58
2023-03-27T10:16:23.033Z,46.40
2023-03-27T10:19:04.557Z,46.32
2023-03-27T10:21:42.757Z,45.60
2023-03-27T10:24:36.055Z,45.27
2023-03-27T10:27:31.352Z,45.11
2023-03-27T10:30:33.450Z,44.55
2023-03-27T10:33:36.764Z,44.20
2023-03-27T10:36:25.984Z,44.07
2023-03-27T10:39:02.259Z,43.49
2023-03-27T10:41:48.133Z,43.22
2023-03-27T10:44:25.906Z,43.26
2023-03-27T10:46:57.293Z,43.17
2023-03-27T10:49:48.898Z,42.83
2023-03-27T10:52:37.352Z,42.61
2023-03-27T10:55:44.553Z,42.52
2023-03-27T10:58:23.791Z,42.14
2023-03-27T11:01:04.743Z,41.99
2023-03-27T11:03:51.761Z,41.92
2023-03-27T11:06:27.405Z,41.64
2023-03-27T11:09:36.561Z,41.53
2023-03-27T11:12:16.888Z,41.09
2023-03-27T11:15:10.282Z,41.15
2023-03-27T11:17:46.172Z,40.58
2023-03-27T11:20:28.172Z,40.45
2023-03-27T11:23:30.101Z,40.27
2023-03-27T11:26:19.912Z,41.39
2023-03-27T11:29:23.547Z,41.64
2023-03-27T11:32:03.794Z,41.65
2023-03-27T11:35:04.253Z,41.89
2023-03-27T11:37:50.347Z,41.81
2023-03-27T11:40:39.556Z,41.74
2023-03-27T11:43:12.810Z,41.22
2023-03-27T11:45:47.546Z,40.71
2023-03-27T11:48:33.204Z,41.01
2023-03-27T11:51:04.450Z,40.76
2023-03-27T11:53:51.682Z,41.03
2023-03-27T11:56:58.077Z,41.26
2023-03-27T12:00:27.964Z,41.31
2023-03-27T12:03:13.581Z,41.65
2023-03-27T12:06:00.149Z,42.23
2023-03-27T12:08:45.473Z,41.86
2023-03-27T12:11:14.308Z,41.85
2023-03-27T12:14:17.657Z,41.93
2023-03-27T12:17:32.240Z,41.57
2023-03-27T12:20:19.406Z,40.73
2023-03-27T12:23:25.666Z,40.53
2023-03-27T12:26:40.501Z,40.31
2023-03-27T12:29:43.326Z,40.76
2023-03-27T12:32:24.664Z,40.89
2023-03-27T12:34:56.572Z,40.75
2023-03-27T12:37:34.631Z,40.59
2023-03-27T12:40:22.213Z,41.14
2023-03-27T12:42:53.110Z,41.05
2023-03-27T12:45:27.474Z,41.09
2023-03-27T12:48:19.880Z,42.11
2023-03-27T12:50:52.246Z,42.01
2023-03-27T12:53:29.642Z,42.15
2023-03-27T12:56:13.259Z,42.53
2023-03-27T12:58:41.796Z,41.98
2023-03-27T13:01:51.582Z,42.16
2023-03-27T13:05:16.390Z,42.44
2023-03-27T13:08:11.625Z,41.92
2023-03-27T13:11:39.800Z,41.68
2023-03-27T13:14:09.722Z,41.79
2023-03-27T13:17:00.547Z,42.37
2023-03-27T13:19:42.350Z,42.67
2023-03-27T13:22:19.010Z,42.43
2023-03-27T13:25:00.607Z,42.58
2023-03-27T13:27:44.111Z,42.50
2023-03-27T13:30:48.182Z,41.85
2023-03-27T13:33:48.100Z,42.10
2023-03-27T13:36:29.947Z,42.64
2023-03-27T13:39:00.130Z,43.37
2023-03-27T13:41:45.270Z,43.11
2023-03-27T13:44:30.857Z,43.27
2023-03-27T13:47:02.386Z,43.76
2023-03-27T13:50:03.084Z,43.42
2023-03-27T13:52:57.055Z,42.32
2023-03-27T13:56:02.598Z,42.24
2023-03-27T13:59:21.918Z,42.03
2023-03-27T14:02:14.964Z,41.95
2023-03-27T14:04:54.210Z,41.74
2023-03-27T14:07:41.485Z,41.57
2023-03-27T14:10:33.620Z,41.71
2023-03-27T14:13:31.998Z,41.28
2023-03-27T14:16:12.382Z,41.20
2023-03-27T14:19:04.694Z,41.06
2023-03-27T14:21:52.374Z,40.88
2023-03-27T14:24:47.391Z,40.91
2023-03-27T14:27:28.337Z,40.92
2023-03-27T14:30:26.499Z,40.65
2023-03-27T14:33:34.622Z,40.52
2023-03-27T14:36:05.608Z,40.15
2023-03-27T14:38:37.489Z,38.34
2023-03-27T14:41:18.739Z,37.87
2023-03-27T14:43:54.036Z,38.15
2023-03-27T14:46:24.208Z,37.90
2023-03-27T14:48:56.887Z,37.23
2023-03-27T14:51:37.134Z,37.23
2023-03-27T14:54:16.998Z,37.22
2023-03-27T14:56:57.334Z,36.70
2023-03-27T14:59:37.213Z,36.49
2023-03-27T15:02:32.685Z,36.41
2023-03-27T15:05:15.245Z,36.44
2023-03-27T15:07:49.142Z,36.48
2023-03-27T15:10:31.915Z,37.08
2023-03-27T15:13:35.898Z,37.20
2023-03-27T15:16:06.748Z,37.35
2023-03-27T15:19:05.109Z,37.35
2023-03-27T15:21:49.574Z,37.35
2023-03-27T15:24:31.749Z,37.32
2023-03-27T15:27:01.800Z,37.27
2023-03-27T15:29:48.446Z,37.22
2023-03-27T15:32:22.278Z,36.79
2023-03-27T15:34:58.073Z,37.20
2023-03-27T15:37:31.971Z,39.10
2023-03-27T15:40:00.600Z,39.89
2023-03-27T15:42:48.254Z,40.81
2023-03-27T15:45:19.044Z,41.25
2023-03-27T15:48:06.803Z,41.48
2023-03-27T15:50:35.226Z,42.25
2023-03-27T15:53:03.685Z,41.89
2023-03-27T15:55:41.019Z,42.95
2023-03-27T15:58:27.178Z,46.56
2023-03-27T16:01:02.105Z,50.65
2023-03-27T16:03:34.590Z,55.25
2023-03-27T16:06:05.018Z,56.64
2023-03-27T16:08:41.368Z,57.60
2023-03-27T16:11:12.607Z,58.27
2023-03-27T16:13:54.801Z,57.93
2023-03-27T16:16:26.112Z,58.80
2023-03-27T16:18:58.005Z,59.72
2023-03-27T16:21:27.851Z,59.93
2023-03-27T16:23:56.715Z,59.88
2023-03-27T16:26:30.686Z,59.18
2023-03-27T16:29:03.508Z,58.45
2023-03-27T16:31:31.765Z,57.96
2023-03-27T16:34:00.368Z,57.32
2023-03-27T16:36:31.322Z,56.86
2023-03-27T16:38:59.846Z,57.31
2023-03-27T16:41:28.365Z,56.89
2023-03-27T16:43:56.588Z,56.38
2023-03-27T16:46:27.972Z,55.54
2023-03-27T16:48:56.840Z,55.50
2023-03-27T16:51:26.754Z,55.37
2023-03-27T16:53:55.367Z,56.03
2023-03-27T16:56:24.478Z,55.84
2023-03-27T16:58:52.775Z,56.02
2023-03-27T17:01:24.061Z,55.99
2023-03-27T17:03:52.777Z,55.56
2023-03-27T17:06:22.833Z,55.71
2023-03-27T17:08:55.755Z,55.86
2023-03-27T17:11:24.496Z,55.68
2023-03-27T17:13:52.862Z,54.83
2023-03-27T17:16:21.384Z,55.52
2023-03-27T17:18:50.105Z,56.28
2023-03-27T17:21:18.478Z,56.82
2023-03-27T17:23:48.827Z,57.46
2023-03-27T17:26:27.022Z,56.84
2023-03-27T17:28:56.231Z,56.31
2023-03-27T17:31:25.008Z,57.49
2023-03-27T17:33:53.376Z,57.84
2023-03-27T17:36:33.093Z,57.29
2023-03-27T17:39:08.229Z,56.83
2023-03-27T17:41:36.431Z,56.32
2023-03-27T17:44:06.975Z,56.04
2023-03-27T17:46:37.409Z,56.42
2023-03-27T17:49:05.561Z,56.74
2023-03-27T17:51:35.591Z,56.98
2023-03-27T17:54:04.786Z,56.78
2023-03-27T17:56:32.886Z,56.56
2023-03-27T17:59:01.239Z,56.83
2023-03-27T18:01:29.339Z,56.98
2023-03-27T18:04:00.678Z,56.67
2023-03-27T18:06:29.229Z,57.12
2023-03-27T18:08:58.271Z,57.30
2023-03-27T18:11:26.742Z,57.31
2023-03-27T18:13:54.863Z,57.61
2023-03-27T18:16:23.519Z,57.88
2023-03-27T18:18:54.320Z,57.35
2023-03-27T18:21:22.777Z,56.79
2023-03-27T18:23:53.474Z,57.17
2023-03-27T18:26:22.857Z,57.23
2023-03-27T18:28:52.447Z,57.04
2023-03-27T18:31:21.170Z,57.21
2023-03-27T18:33:49.463Z,57.47
2023-03-27T18:36:17.680Z,57.48
2023-03-27T18:38:47.724Z,57.54
2023-03-27T18:41:17.462Z,58.16
2023-03-27T18:43:45.714Z,57.74
2023-03-27T18:46:16.958Z,57.25
2023-03-27T18:48:49.059Z,57.18
2023-03-27T18:51:18.933Z,56.78
2023-03-27T18:53:47.143Z,56.67
2023-03-27T18:56:16.844Z,57.40
2023-03-27T18:58:45.056Z,57.21
2023-03-27T19:01:13.275Z,58.38
2023-03-27T19:03:42.402Z,59.99
2023-03-27T19:06:12.341Z,59.13
2023-03-27T19:08:42.520Z,59.62
2023-03-27T19:11:11.103Z,58.75
2023-03-27T19:14:14.760Z,59.20
2023-03-27T19:17:05.681Z,59.53
2023-03-27T19:19:43.029Z,59.43
2023-03-27T19:22:36.085Z,60.39
2023-03-27T19:25:16.618Z,60.84
2023-03-27T19:27:44.681Z,61.40
2023-03-27T19:30:14.441Z,61.41
2023-03-27T19:32:42.732Z,60.14
2023-03-27T19:35:10.929Z,61.54
2023-03-27T19:37:39.153Z,63.96
2023-03-27T19:40:09.600Z,64.63
2023-03-27T19:42:37.741Z,65.62
2023-03-27T19:45:06.661Z,66.60
2023-03-27T19:47:35.240Z,66.78
2023-03-27T19:50:05.004Z,66.92
2023-03-27T19:53:05.178Z,66.74
2023-03-27T19:55:37.772Z,67.92
2023-03-27T19:58:06.189Z,67.89
2023-03-27T20:00:38.498Z,68.40
2023-03-27T20:03:10.355Z,67.87
2023-03-27T20:05:47.592Z,67.60
2023-03-27T20:08:16.801Z,67.05
2023-03-27T20:10:47.628Z,66.42
2023-03-27T20:13:20.026Z,66.59
2023-03-27T20:15:50.650Z,66.44
2023-03-27T20:18:20.068Z,66.15
2023-03-27T20:20:50.394Z,66.31
2023-03-27T20:23:18.855Z,67.05
2023-03-27T20:25:51.720Z,67.71
2023-03-27T20:28:19.873Z,68.08
2023-03-27T20:30:48.375Z,68.61
2023-03-27T20:33:16.559Z,69.57
2023-03-27T20:35:45.059Z,70.97
2023-03-27T20:38:13.931Z,71.52
2023-03-27T20:40:53.377Z,72.14
2023-03-27T20:43:31.068Z,74.57
2023-03-27T20:46:00.109Z,76.10
2023-03-27T20:48:40.429Z,77.00
2023-03-27T20:51:14.902Z,77.74
2023-03-27T20:53:45.852Z,78.20
2023-03-27T20:56:14.372Z,78.13
2023-03-27T20:58:42.512Z,77.17
2023-03-27T21:01:11.470Z,77.10
2023-03-27T21:03:46.107Z,77.37
2023-03-27T21:06:17.028Z,78.30
2023-03-27T21:08:46.594Z,78.88
2023-03-27T21:11:15.366Z,79.38
2023-03-27T21:13:46.371Z,79.63
2023-03-27T21:16:14.804Z,78.83
2023-03-27T21:18:43.258Z,78.26
2023-03-27T21:21:11.374Z,78.16
2023-03-27T21:23:39.716Z,77.76
2023-03-27T21:26:07.884Z,77.00
2023-03-27T21:28:36.220Z,77.48
2023-03-27T21:31:09.113Z,76.93
2023-03-27T21:33:38.538Z,77.57
2023-03-27T21:36:07.129Z,78.26
2023-03-27T21:38:35.496Z,79.02
2023-03-27T21:41:04.257Z,78.47
2023-03-27T21:43:33.038Z,78.18
2023-03-27T21:46:03.734Z,78.61
2023-03-27T21:48:32.483Z,79.17
2023-03-27T21:51:06.398Z,78.92
2023-03-27T21:53:36.416Z,79.82
2023-03-27T21:56:05.104Z,79.27
2023-03-27T21:58:33.986Z,80.02
2023-03-27T22:01:02.151Z,79.20
2023-03-27T22:03:30.853Z,78.00
2023-03-27T22:06:12.308Z,77.75
2023-03-27T22:08:43.135Z,75.89
2023-03-27T22:11:12.514Z,76.59
2023-03-27T22:13:42.013Z,77.82
2023-03-27T22:16:12.116Z,78.38
2023-03-27T22:18:40.892Z,79.33
2023-03-27T22:21:22.952Z,79.38
2023-03-27T22:23:52.576Z,80.33
2023-03-27T22:26:23.923Z,80.48
2023-03-27T22:28:52.752Z,81.28
2023-03-27T22:31:22.569Z,81.55
2023-03-27T22:33:51.179Z,81.30
2023-03-27T22:36:19.898Z,81.92
2023-03-27T22:38:49.161Z,82.21
2023-03-27T22:41:18.056Z,82.74
2023-03-27T22:43:49.303Z,82.72
2023-03-27T22:46:21.058Z,82.41
2023-03-27T22:48:59.082Z,82.86
2023-03-27T22:51:29.363Z,83.43
2023-03-27T22:53:58.085Z,84.18
2023-03-27T22:56:26.279Z,83.86
2023-03-27T22:58:54.443Z,83.05
2023-03-27T23:01:22.900Z,83.84
2023-03-27T23:03:51.252Z,84.27
2023-03-27T23:06:22.497Z,84.32
2023-03-27T23:08:51.378Z,83.25
2023-03-27T23:11:22.931Z,84.33
2023-03-27T23:13:51.162Z,85.26
2023-03-27T23:16:19.540Z,85.79
2023-03-27T23:18:48.013Z,84.10
2023-03-27T23:21:18.018Z,83.26
2023-03-27T23:23:46.853Z,82.88
2023-03-27T23:26:15.529Z,82.66
2023-03-27T23:28:44.190Z,82.71
2023-03-27T23:31:18.452Z,83.35
2023-03-27T23:33:49.240Z,83.09
2023-03-27T23:36:23.685Z,83.36
2023-03-27T23:38:53.158Z,83.20
2023-03-27T23:41:21.531Z,83.06
2023-03-27T23:43:50.019Z,83.16
2023-03-27T23:46:18.470Z,82.97
2023-03-27T23:48:46.973Z,82.54
2023-03-27T23:51:16.604Z,82.25
2023-03-27T23:53:44.858Z,82.57
2023-03-27T23:56:13.023Z,83.01
2023-03-27T23:58:41.207Z,82.83
